sensor_id;sensor_type;location;lat;lon;timestamp;P1;durP1;ratioP1;P2;durP2;ratioP2
49826;SDS011;35715;51.570;6.036;2024-02-26T00:01:51;2.53;;;2.33;;
49826;SDS011;35715;51.570;6.036;2024-02-26T00:04:17;3.78;;;1.98;;
49826;SDS011;35715;51.570;6.036;2024-02-26T00:06:42;8.43;;;2.88;;
49826;SDS011;35715;51.570;6.036;2024-02-26T00:09:08;6.15;;;2.33;;
49826;SDS011;35715;51.570;6.036;2024-02-26T00:11:37;5.35;;;2.42;;
49826;SDS011;35715;51.570;6.036;2024-02-26T00:14:03;1.77;;;1.67;;
49826;SDS011;35715;51.570;6.036;2024-02-26T00:16:29;2.15;;;1.95;;
49826;SDS011;35715;51.570;6.036;2024-02-26T00:18:55;2.83;;;2.03;;
49826;SDS011;35715;51.570;6.036;2024-02-26T00:21:20;6.95;;;2.65;;
49826;SDS011;35715;51.570;6.036;2024-02-26T00:23:45;2.47;;;1.85;;
49826;SDS011;35715;51.570;6.036;2024-02-26T00:26:11;6.35;;;2.38;;
49826;SDS011;35715;51.570;6.036;2024-02-26T00:28:36;4.45;;;2.30;;
49826;SDS011;35715;51.570;6.036;2024-02-26T00:31:02;4.85;;;2.75;;
49826;SDS011;35715;51.570;6.036;2024-02-26T00:33:28;3.20;;;2.10;;
49826;SDS011;35715;51.570;6.036;2024-02-26T00:35:53;2.92;;;1.73;;
49826;SDS011;35715;51.570;6.036;2024-02-26T00:38:19;2.95;;;1.77;;
49826;SDS011;35715;51.570;6.036;2024-02-26T00:40:44;3.58;;;2.47;;
49826;SDS011;35715;51.570;6.036;2024-02-26T00:43:10;2.05;;;1.52;;
49826;SDS011;35715;51.570;6.036;2024-02-26T00:45:35;2.72;;;2.20;;
49826;SDS011;35715;51.570;6.036;2024-02-26T00:48:01;1.85;;;1.67;;
49826;SDS011;35715;51.570;6.036;2024-02-26T00:50:29;2.63;;;1.55;;
49826;SDS011;35715;51.570;6.036;2024-02-26T00:52:55;2.78;;;1.40;;
49826;SDS011;35715;51.570;6.036;2024-02-26T00:55:23;4.22;;;1.60;;
49826;SDS011;35715;51.570;6.036;2024-02-26T00:57:51;3.53;;;2.67;;
49826;SDS011;35715;51.570;6.036;2024-02-26T01:00:16;6.13;;;1.88;;
49826;SDS011;35715;51.570;6.036;2024-02-26T01:02:42;6.90;;;2.33;;
49826;SDS011;35715;51.570;6.036;2024-02-26T01:07:43;2.47;;;1.63;;
49826;SDS011;35715;51.570;6.036;2024-02-26T01:10:10;3.42;;;1.80;;
49826;SDS011;35715;51.570;6.036;2024-02-26T01:12:42;3.30;;;2.00;;
49826;SDS011;35715;51.570;6.036;2024-02-26T01:15:08;5.30;;;2.67;;
49826;SDS011;35715;51.570;6.036;2024-02-26T01:17:33;1.70;;;1.60;;
49826;SDS011;35715;51.570;6.036;2024-02-26T01:19:58;3.13;;;1.70;;
49826;SDS011;35715;51.570;6.036;2024-02-26T01:22:24;4.30;;;1.80;;
49826;SDS011;35715;51.570;6.036;2024-02-26T01:24:49;7.10;;;2.55;;
49826;SDS011;35715;51.570;6.036;2024-02-26T01:27:15;4.10;;;2.15;;
49826;SDS011;35715;51.570;6.036;2024-02-26T01:29:41;1.95;;;1.77;;
49826;SDS011;35715;51.570;6.036;2024-02-26T01:32:06;2.38;;;2.17;;
49826;SDS011;35715;51.570;6.036;2024-02-26T01:34:32;1.70;;;1.60;;
49826;SDS011;35715;51.570;6.036;2024-02-26T01:36:58;2.80;;;1.60;;
49826;SDS011;35715;51.570;6.036;2024-02-26T01:39:23;3.45;;;2.20;;
49826;SDS011;35715;51.570;6.036;2024-02-26T01:41:49;2.88;;;2.45;;
49826;SDS011;35715;51.570;6.036;2024-02-26T01:44:14;2.47;;;2.28;;
49826;SDS011;35715;51.570;6.036;2024-02-26T01:46:40;2.63;;;2.10;;
49826;SDS011;35715;51.570;6.036;2024-02-26T01:49:05;3.05;;;1.75;;
49826;SDS011;35715;51.570;6.036;2024-02-26T01:51:31;1.70;;;1.48;;
49826;SDS011;35715;51.570;6.036;2024-02-26T01:53:59;2.38;;;2.17;;
49826;SDS011;35715;51.570;6.036;2024-02-26T01:56:27;3.20;;;2.15;;
49826;SDS011;35715;51.570;6.036;2024-02-26T01:58:55;3.60;;;2.28;;
49826;SDS011;35715;51.570;6.036;2024-02-26T02:01:21;3.33;;;1.50;;
49826;SDS011;35715;51.570;6.036;2024-02-26T02:03:50;3.40;;;1.75;;
49826;SDS011;35715;51.570;6.036;2024-02-26T02:06:16;3.38;;;1.83;;
49826;SDS011;35715;51.570;6.036;2024-02-26T02:08:42;3.78;;;1.58;;
49826;SDS011;35715;51.570;6.036;2024-02-26T02:11:07;1.98;;;1.85;;
49826;SDS011;35715;51.570;6.036;2024-02-26T02:13:36;3.53;;;2.20;;
49826;SDS011;35715;51.570;6.036;2024-02-26T02:16:02;3.05;;;2.05;;
49826;SDS011;35715;51.570;6.036;2024-02-26T02:18:27;6.50;;;1.65;;
49826;SDS011;35715;51.570;6.036;2024-02-26T02:20:55;6.63;;;2.28;;
49826;SDS011;35715;51.570;6.036;2024-02-26T02:23:24;2.83;;;1.90;;
49826;SDS011;35715;51.570;6.036;2024-02-26T02:25:49;2.75;;;1.50;;
49826;SDS011;35715;51.570;6.036;2024-02-26T02:28:15;2.38;;;2.17;;
49826;SDS011;35715;51.570;6.036;2024-02-26T02:30:40;10.57;;;2.75;;
49826;SDS011;35715;51.570;6.036;2024-02-26T02:33:06;3.38;;;1.77;;
49826;SDS011;35715;51.570;6.036;2024-02-26T02:35:32;5.82;;;2.22;;
49826;SDS011;35715;51.570;6.036;2024-02-26T02:37:57;1.35;;;1.25;;
49826;SDS011;35715;51.570;6.036;2024-02-26T02:40:23;2.05;;;1.80;;
49826;SDS011;35715;51.570;6.036;2024-02-26T02:42:49;2.15;;;1.75;;
49826;SDS011;35715;51.570;6.036;2024-02-26T02:45:14;1.98;;;1.10;;
49826;SDS011;35715;51.570;6.036;2024-02-26T02:47:39;3.95;;;1.60;;
49826;SDS011;35715;51.570;6.036;2024-02-26T02:50:05;2.55;;;1.88;;
49826;SDS011;35715;51.570;6.036;2024-02-26T02:52:30;3.22;;;2.40;;
49826;SDS011;35715;51.570;6.036;2024-02-26T02:54:56;2.45;;;1.75;;
49826;SDS011;35715;51.570;6.036;2024-02-26T02:57:21;4.28;;;2.25;;
49826;SDS011;35715;51.570;6.036;2024-02-26T02:59:47;3.45;;;2.03;;
49826;SDS011;35715;51.570;6.036;2024-02-26T03:02:12;2.13;;;1.92;;
49826;SDS011;35715;51.570;6.036;2024-02-26T03:04:38;1.95;;;1.73;;
49826;SDS011;35715;51.570;6.036;2024-02-26T03:07:03;2.13;;;2.03;;
49826;SDS011;35715;51.570;6.036;2024-02-26T03:09:29;2.45;;;1.88;;
49826;SDS011;35715;51.570;6.036;2024-02-26T03:11:54;1.58;;;1.48;;
49826;SDS011;35715;51.570;6.036;2024-02-26T03:14:19;1.85;;;1.42;;
49826;SDS011;35715;51.570;6.036;2024-02-26T03:16:48;2.08;;;1.60;;
49826;SDS011;35715;51.570;6.036;2024-02-26T03:19:16;3.42;;;1.90;;
49826;SDS011;35715;51.570;6.036;2024-02-26T03:21:42;2.85;;;1.70;;
49826;SDS011;35715;51.570;6.036;2024-02-26T03:24:07;1.45;;;1.35;;
49826;SDS011;35715;51.570;6.036;2024-02-26T03:26:35;2.00;;;1.73;;
49826;SDS011;35715;51.570;6.036;2024-02-26T03:29:04;1.40;;;1.30;;
49826;SDS011;35715;51.570;6.036;2024-02-26T03:31:30;2.37;;;1.97;;
49826;SDS011;35715;51.570;6.036;2024-02-26T03:33:56;3.65;;;1.83;;
49826;SDS011;35715;51.570;6.036;2024-02-26T03:36:21;2.38;;;1.23;;
49826;SDS011;35715;51.570;6.036;2024-02-26T03:38:46;1.73;;;1.55;;
49826;SDS011;35715;51.570;6.036;2024-02-26T03:41:13;8.95;;;1.83;;
49826;SDS011;35715;51.570;6.036;2024-02-26T03:43:40;2.63;;;1.48;;
49826;SDS011;35715;51.570;6.036;2024-02-26T03:46:09;2.85;;;2.10;;
49826;SDS011;35715;51.570;6.036;2024-02-26T03:51:01;2.65;;;1.45;;
49826;SDS011;35715;51.570;6.036;2024-02-26T03:53:27;2.78;;;1.30;;
49826;SDS011;35715;51.570;6.036;2024-02-26T03:55:53;2.80;;;2.13;;
49826;SDS011;35715;51.570;6.036;2024-02-26T03:58:20;3.20;;;2.22;;
49826;SDS011;35715;51.570;6.036;2024-02-26T04:00:45;6.25;;;1.88;;
49826;SDS011;35715;51.570;6.036;2024-02-26T04:03:12;3.92;;;1.95;;
49826;SDS011;35715;51.570;6.036;2024-02-26T04:05:38;2.38;;;2.17;;
49826;SDS011;35715;51.570;6.036;2024-02-26T04:08:04;1.70;;;1.60;;
49826;SDS011;35715;51.570;6.036;2024-02-26T04:10:32;2.05;;;1.63;;
49826;SDS011;35715;51.570;6.036;2024-02-26T04:12:57;1.98;;;1.88;;
49826;SDS011;35715;51.570;6.036;2024-02-26T04:15:22;2.30;;;2.10;;
49826;SDS011;35715;51.570;6.036;2024-02-26T04:17:48;2.55;;;2.33;;
49826;SDS011;35715;51.570;6.036;2024-02-26T04:20:14;2.90;;;2.25;;
49826;SDS011;35715;51.570;6.036;2024-02-26T04:22:43;19.33;;;2.45;;
49826;SDS011;35715;51.570;6.036;2024-02-26T04:25:08;2.08;;;1.95;;
49826;SDS011;35715;51.570;6.036;2024-02-26T04:27:34;2.45;;;2.17;;
49826;SDS011;35715;51.570;6.036;2024-02-26T04:29:59;2.05;;;1.92;;
49826;SDS011;35715;51.570;6.036;2024-02-26T04:32:24;2.35;;;2.15;;
49826;SDS011;35715;51.570;6.036;2024-02-26T04:34:50;2.70;;;2.50;;
49826;SDS011;35715;51.570;6.036;2024-02-26T04:37:15;2.10;;;1.90;;
49826;SDS011;35715;51.570;6.036;2024-02-26T04:39:40;2.92;;;1.50;;
49826;SDS011;35715;51.570;6.036;2024-02-26T04:42:06;2.47;;;2.20;;
49826;SDS011;35715;51.570;6.036;2024-02-26T04:44:31;1.92;;;1.70;;
49826;SDS011;35715;51.570;6.036;2024-02-26T04:46:57;2.58;;;2.08;;
49826;SDS011;35715;51.570;6.036;2024-02-26T04:49:22;3.92;;;1.55;;
49826;SDS011;35715;51.570;6.036;2024-02-26T04:51:50;4.18;;;1.77;;
49826;SDS011;35715;51.570;6.036;2024-02-26T04:54:15;2.17;;;1.92;;
49826;SDS011;35715;51.570;6.036;2024-02-26T04:56:41;2.10;;;1.33;;
49826;SDS011;35715;51.570;6.036;2024-02-26T04:59:06;2.42;;;1.85;;
49826;SDS011;35715;51.570;6.036;2024-02-26T05:01:31;1.65;;;1.55;;
49826;SDS011;35715;51.570;6.036;2024-02-26T05:04:03;1.92;;;1.50;;
49826;SDS011;35715;51.570;6.036;2024-02-26T05:06:28;2.65;;;1.52;;
49826;SDS011;35715;51.570;6.036;2024-02-26T05:08:54;2.45;;;1.70;;
49826;SDS011;35715;51.570;6.036;2024-02-26T05:11:19;2.97;;;1.45;;
49826;SDS011;35715;51.570;6.036;2024-02-26T05:13:45;1.90;;;1.80;;
49826;SDS011;35715;51.570;6.036;2024-02-26T05:16:10;0.85;;;0.85;;
49826;SDS011;35715;51.570;6.036;2024-02-26T05:18:36;1.75;;;1.65;;
49826;SDS011;35715;51.570;6.036;2024-02-26T05:21:01;1.83;;;1.73;;
49826;SDS011;35715;51.570;6.036;2024-02-26T05:23:28;2.00;;;1.85;;
49826;SDS011;35715;51.570;6.036;2024-02-26T05:25:56;2.22;;;1.30;;
49826;SDS011;35715;51.570;6.036;2024-02-26T05:28:21;1.73;;;1.60;;
49826;SDS011;35715;51.570;6.036;2024-02-26T05:30:47;2.60;;;2.10;;
49826;SDS011;35715;51.570;6.036;2024-02-26T05:33:15;1.85;;;1.45;;
49826;SDS011;35715;51.570;6.036;2024-02-26T05:35:41;3.22;;;1.55;;
49826;SDS011;35715;51.570;6.036;2024-02-26T05:38:06;2.45;;;2.25;;
49826;SDS011;35715;51.570;6.036;2024-02-26T05:40:31;1.60;;;1.50;;
49826;SDS011;35715;51.570;6.036;2024-02-26T05:42:57;4.53;;;1.65;;
49826;SDS011;35715;51.570;6.036;2024-02-26T05:45:22;1.25;;;1.08;;
49826;SDS011;35715;51.570;6.036;2024-02-26T05:47:48;0.98;;;0.98;;
49826;SDS011;35715;51.570;6.036;2024-02-26T05:50:14;2.97;;;1.52;;
49826;SDS011;35715;51.570;6.036;2024-02-26T05:52:40;3.78;;;1.85;;
49826;SDS011;35715;51.570;6.036;2024-02-26T05:55:06;1.27;;;1.17;;
49826;SDS011;35715;51.570;6.036;2024-02-26T05:57:35;2.28;;;1.90;;
49826;SDS011;35715;51.570;6.036;2024-02-26T06:00:01;2.00;;;1.80;;
49826;SDS011;35715;51.570;6.036;2024-02-26T06:02:32;2.45;;;1.48;;
49826;SDS011;35715;51.570;6.036;2024-02-26T06:04:57;1.85;;;1.40;;
49826;SDS011;35715;51.570;6.036;2024-02-26T06:07:23;1.70;;;1.60;;
49826;SDS011;35715;51.570;6.036;2024-02-26T06:09:49;2.33;;;1.83;;
49826;SDS011;35715;51.570;6.036;2024-02-26T06:12:14;3.42;;;2.17;;
49826;SDS011;35715;51.570;6.036;2024-02-26T06:14:41;2.00;;;1.65;;
49826;SDS011;35715;51.570;6.036;2024-02-26T06:17:07;1.85;;;1.35;;
49826;SDS011;35715;51.570;6.036;2024-02-26T06:19:32;2.30;;;1.48;;
49826;SDS011;35715;51.570;6.036;2024-02-26T06:21:58;1.35;;;1.17;;
49826;SDS011;35715;51.570;6.036;2024-02-26T06:24:23;2.22;;;2.03;;
49826;SDS011;35715;51.570;6.036;2024-02-26T06:26:48;2.13;;;1.90;;
49826;SDS011;35715;51.570;6.036;2024-02-26T06:29:14;4.53;;;1.95;;
49826;SDS011;35715;51.570;6.036;2024-02-26T06:31:39;1.63;;;1.52;;
49826;SDS011;35715;51.570;6.036;2024-02-26T06:34:05;1.77;;;1.45;;
49826;SDS011;35715;51.570;6.036;2024-02-26T06:36:30;2.20;;;1.77;;
49826;SDS011;35715;51.570;6.036;2024-02-26T06:38:57;2.20;;;1.55;;
49826;SDS011;35715;51.570;6.036;2024-02-26T06:41:22;1.85;;;1.75;;
49826;SDS011;35715;51.570;6.036;2024-02-26T06:43:52;1.40;;;1.30;;
49826;SDS011;35715;51.570;6.036;2024-02-26T06:46:21;1.73;;;1.63;;
49826;SDS011;35715;51.570;6.036;2024-02-26T06:48:47;2.38;;;1.83;;
49826;SDS011;35715;51.570;6.036;2024-02-26T06:51:13;2.63;;;1.40;;
49826;SDS011;35715;51.570;6.036;2024-02-26T06:53:39;1.60;;;1.50;;
49826;SDS011;35715;51.570;6.036;2024-02-26T06:56:04;2.10;;;1.90;;
49826;SDS011;35715;51.570;6.036;2024-02-26T06:58:29;2.03;;;1.92;;
49826;SDS011;35715;51.570;6.036;2024-02-26T07:00:55;1.70;;;1.60;;
49826;SDS011;35715;51.570;6.036;2024-02-26T07:03:20;7.85;;;2.25;;
49826;SDS011;35715;51.570;6.036;2024-02-26T07:05:47;2.35;;;1.85;;
49826;SDS011;35715;51.570;6.036;2024-02-26T07:08:13;2.80;;;2.30;;
49826;SDS011;35715;51.570;6.036;2024-02-26T07:10:38;2.10;;;2.00;;
49826;SDS011;35715;51.570;6.036;2024-02-26T07:13:04;3.58;;;2.00;;
49826;SDS011;35715;51.570;6.036;2024-02-26T07:15:29;2.70;;;2.50;;
49826;SDS011;35715;51.570;6.036;2024-02-26T07:17:54;2.20;;;2.00;;
49826;SDS011;35715;51.570;6.036;2024-02-26T07:20:20;4.32;;;2.17;;
49826;SDS011;35715;51.570;6.036;2024-02-26T07:22:45;3.53;;;2.13;;
49826;SDS011;35715;51.570;6.036;2024-02-26T07:25:11;6.10;;;2.55;;
49826;SDS011;35715;51.570;6.036;2024-02-26T07:27:38;1.73;;;1.63;;
49826;SDS011;35715;51.570;6.036;2024-02-26T07:30:05;3.28;;;1.98;;
49826;SDS011;35715;51.570;6.036;2024-02-26T07:32:31;2.33;;;2.13;;
49826;SDS011;35715;51.570;6.036;2024-02-26T07:34:57;5.57;;;2.92;;
49826;SDS011;35715;51.570;6.036;2024-02-26T07:37:22;4.43;;;2.40;;
49826;SDS011;35715;51.570;6.036;2024-02-26T07:39:47;2.58;;;2.08;;
49826;SDS011;35715;51.570;6.036;2024-02-26T07:42:13;2.28;;;2.15;;
49826;SDS011;35715;51.570;6.036;2024-02-26T07:44:38;2.38;;;2.17;;
49826;SDS011;35715;51.570;6.036;2024-02-26T07:47:05;1.73;;;1.45;;
49826;SDS011;35715;51.570;6.036;2024-02-26T07:49:30;2.60;;;2.33;;
49826;SDS011;35715;51.570;6.036;2024-02-26T07:51:59;4.28;;;1.90;;
49826;SDS011;35715;51.570;6.036;2024-02-26T07:54:24;2.03;;;1.83;;
49826;SDS011;35715;51.570;6.036;2024-02-26T07:56:50;2.72;;;1.60;;
49826;SDS011;35715;51.570;6.036;2024-02-26T07:59:15;2.03;;;1.90;;
49826;SDS011;35715;51.570;6.036;2024-02-26T08:01:43;3.22;;;2.33;;
49826;SDS011;35715;51.570;6.036;2024-02-26T08:04:09;2.13;;;1.92;;
49826;SDS011;35715;51.570;6.036;2024-02-26T08:06:34;2.33;;;2.13;;
49826;SDS011;35715;51.570;6.036;2024-02-26T08:09:00;3.83;;;2.42;;
49826;SDS011;35715;51.570;6.036;2024-02-26T08:11:25;2.53;;;2.33;;
49826;SDS011;35715;51.570;6.036;2024-02-26T08:13:50;2.33;;;2.13;;
49826;SDS011;35715;51.570;6.036;2024-02-26T08:16:16;2.75;;;2.28;;
49826;SDS011;35715;51.570;6.036;2024-02-26T08:18:41;2.15;;;1.98;;
49826;SDS011;35715;51.570;6.036;2024-02-26T08:21:06;2.70;;;2.50;;
49826;SDS011;35715;51.570;6.036;2024-02-26T08:23:33;13.50;;;2.85;;
49826;SDS011;35715;51.570;6.036;2024-02-26T08:25:59;2.70;;;2.45;;
49826;SDS011;35715;51.570;6.036;2024-02-26T08:28:24;5.22;;;2.80;;
49826;SDS011;35715;51.570;6.036;2024-02-26T08:30:49;2.80;;;2.60;;
49826;SDS011;35715;51.570;6.036;2024-02-26T08:33:15;3.85;;;2.22;;
49826;SDS011;35715;51.570;6.036;2024-02-26T08:35:40;3.10;;;2.58;;
49826;SDS011;35715;51.570;6.036;2024-02-26T08:38:06;2.70;;;2.50;;
49826;SDS011;35715;51.570;6.036;2024-02-26T08:40:31;4.15;;;3.00;;
49826;SDS011;35715;51.570;6.036;2024-02-26T08:42:56;3.20;;;2.90;;
49826;SDS011;35715;51.570;6.036;2024-02-26T08:45:22;3.42;;;3.13;;
49826;SDS011;35715;51.570;6.036;2024-02-26T08:47:48;4.88;;;2.92;;
49826;SDS011;35715;51.570;6.036;2024-02-26T08:50:14;2.90;;;2.70;;
49826;SDS011;35715;51.570;6.036;2024-02-26T08:52:39;2.85;;;2.65;;
49826;SDS011;35715;51.570;6.036;2024-02-26T08:55:07;4.10;;;3.70;;
49826;SDS011;35715;51.570;6.036;2024-02-26T08:57:34;4.22;;;3.58;;
49826;SDS011;35715;51.570;6.036;2024-02-26T08:59:59;2.97;;;2.72;;
49826;SDS011;35715;51.570;6.036;2024-02-26T09:02:26;3.38;;;2.95;;
49826;SDS011;35715;51.570;6.036;2024-02-26T09:04:51;3.20;;;2.90;;
49826;SDS011;35715;51.570;6.036;2024-02-26T09:07:19;5.85;;;3.10;;
49826;SDS011;35715;51.570;6.036;2024-02-26T09:09:47;4.00;;;3.05;;
49826;SDS011;35715;51.570;6.036;2024-02-26T09:12:13;7.85;;;3.58;;
49826;SDS011;35715;51.570;6.036;2024-02-26T09:14:38;3.70;;;3.40;;
49826;SDS011;35715;51.570;6.036;2024-02-26T09:17:03;5.22;;;3.35;;
49826;SDS011;35715;51.570;6.036;2024-02-26T09:19:29;3.45;;;3.15;;
49826;SDS011;35715;51.570;6.036;2024-02-26T09:21:54;3.20;;;2.90;;
49826;SDS011;35715;51.570;6.036;2024-02-26T09:24:22;3.90;;;3.60;;
49826;SDS011;35715;51.570;6.036;2024-02-26T09:26:48;4.18;;;2.88;;
49826;SDS011;35715;51.570;6.036;2024-02-26T09:29:13;5.20;;;4.03;;
49826;SDS011;35715;51.570;6.036;2024-02-26T09:31:39;5.80;;;3.67;;
49826;SDS011;35715;51.570;6.036;2024-02-26T09:34:06;5.47;;;3.58;;
49826;SDS011;35715;51.570;6.036;2024-02-26T09:36:31;3.72;;;3.28;;
49826;SDS011;35715;51.570;6.036;2024-02-26T09:38:57;4.80;;;3.85;;
49826;SDS011;35715;51.570;6.036;2024-02-26T09:41:27;3.58;;;3.28;;
49826;SDS011;35715;51.570;6.036;2024-02-26T09:43:55;4.68;;;3.63;;
49826;SDS011;35715;51.570;6.036;2024-02-26T09:46:22;3.72;;;3.42;;
49826;SDS011;35715;51.570;6.036;2024-02-26T09:48:48;3.55;;;3.17;;
49826;SDS011;35715;51.570;6.036;2024-02-26T09:51:17;3.22;;;2.92;;
49826;SDS011;35715;51.570;6.036;2024-02-26T09:53:45;5.75;;;3.55;;
49826;SDS011;35715;51.570;6.036;2024-02-26T09:56:13;5.57;;;4.40;;
49826;SDS011;35715;51.570;6.036;2024-02-26T09:58:40;9.48;;;4.72;;
49826;SDS011;35715;51.570;6.036;2024-02-26T10:01:17;3.67;;;3.35;;
49826;SDS011;35715;51.570;6.036;2024-02-26T10:03:43;4.70;;;4.10;;
49826;SDS011;35715;51.570;6.036;2024-02-26T10:06:10;3.60;;;3.05;;
49826;SDS011;35715;51.570;6.036;2024-02-26T10:08:36;3.97;;;3.67;;
49826;SDS011;35715;51.570;6.036;2024-02-26T10:11:02;3.78;;;3.40;;
49826;SDS011;35715;51.570;6.036;2024-02-26T10:13:29;6.82;;;3.55;;
49826;SDS011;35715;51.570;6.036;2024-02-26T10:15:55;10.20;;;4.15;;
49826;SDS011;35715;51.570;6.036;2024-02-26T10:18:20;5.18;;;3.53;;
49826;SDS011;35715;51.570;6.036;2024-02-26T10:21:00;5.10;;;4.63;;
49826;SDS011;35715;51.570;6.036;2024-02-26T10:23:26;5.53;;;4.60;;
49826;SDS011;35715;51.570;6.036;2024-02-26T10:25:52;4.80;;;3.97;;
49826;SDS011;35715;51.570;6.036;2024-02-26T10:28:19;4.68;;;4.22;;
49826;SDS011;35715;51.570;6.036;2024-02-26T10:30:45;4.45;;;4.05;;
49826;SDS011;35715;51.570;6.036;2024-02-26T10:33:10;4.32;;;3.92;;
49826;SDS011;35715;51.570;6.036;2024-02-26T10:35:36;4.40;;;4.00;;
49826;SDS011;35715;51.570;6.036;2024-02-26T10:38:05;5.15;;;4.63;;
49826;SDS011;35715;51.570;6.036;2024-02-26T10:40:32;4.60;;;4.20;;
49826;SDS011;35715;51.570;6.036;2024-02-26T10:42:58;4.25;;;3.38;;
49826;SDS011;35715;51.570;6.036;2024-02-26T10:45:24;6.03;;;3.90;;
49826;SDS011;35715;51.570;6.036;2024-02-26T10:47:49;3.85;;;3.55;;
49826;SDS011;35715;51.570;6.036;2024-02-26T10:50:15;4.40;;;3.78;;
49826;SDS011;35715;51.570;6.036;2024-02-26T10:52:44;6.25;;;3.88;;
49826;SDS011;35715;51.570;6.036;2024-02-26T10:55:12;5.93;;;5.00;;
49826;SDS011;35715;51.570;6.036;2024-02-26T10:57:45;7.18;;;4.20;;
49826;SDS011;35715;51.570;6.036;2024-02-26T11:00:13;4.68;;;4.15;;
49826;SDS011;35715;51.570;6.036;2024-02-26T11:02:40;4.68;;;4.28;;
49826;SDS011;35715;51.570;6.036;2024-02-26T11:05:06;6.07;;;5.38;;
49826;SDS011;35715;51.570;6.036;2024-02-26T11:07:35;4.32;;;3.92;;
49826;SDS011;35715;51.570;6.036;2024-02-26T11:10:02;5.65;;;4.20;;
49826;SDS011;35715;51.570;6.036;2024-02-26T11:12:29;7.78;;;5.80;;
49826;SDS011;35715;51.570;6.036;2024-02-26T11:14:56;5.57;;;5.07;;
49826;SDS011;35715;51.570;6.036;2024-02-26T11:17:23;6.78;;;6.05;;
49826;SDS011;35715;51.570;6.036;2024-02-26T11:19:53;7.60;;;5.93;;
49826;SDS011;35715;51.570;6.036;2024-02-26T11:22:20;12.23;;;6.13;;
49826;SDS011;35715;51.570;6.036;2024-02-26T11:24:51;8.20;;;5.30;;
49826;SDS011;35715;51.570;6.036;2024-02-26T11:27:23;6.47;;;5.85;;
49826;SDS011;35715;51.570;6.036;2024-02-26T11:29:52;10.95;;;7.95;;
49826;SDS011;35715;51.570;6.036;2024-02-26T11:32:18;11.45;;;5.95;;
49826;SDS011;35715;51.570;6.036;2024-02-26T11:34:44;6.35;;;5.68;;
49826;SDS011;35715;51.570;6.036;2024-02-26T11:37:10;7.68;;;6.95;;
49826;SDS011;35715;51.570;6.036;2024-02-26T11:39:37;10.63;;;6.95;;
49826;SDS011;35715;51.570;6.036;2024-02-26T11:42:04;8.93;;;7.80;;
49826;SDS011;35715;51.570;6.036;2024-02-26T11:44:31;9.20;;;8.05;;
49826;SDS011;35715;51.570;6.036;2024-02-26T11:46:56;8.90;;;7.30;;
49826;SDS011;35715;51.570;6.036;2024-02-26T11:51:50;8.68;;;7.47;;
49826;SDS011;35715;51.570;6.036;2024-02-26T11:57:22;9.50;;;8.13;;
49826;SDS011;35715;51.570;6.036;2024-02-26T12:07:44;8.73;;;6.80;;
49826;SDS011;35715;51.570;6.036;2024-02-26T12:10:53;11.07;;;8.38;;
49826;SDS011;35715;51.570;6.036;2024-02-26T12:13:20;9.20;;;7.85;;
49826;SDS011;35715;51.570;6.036;2024-02-26T12:15:57;11.90;;;9.35;;
49826;SDS011;35715;51.570;6.036;2024-02-26T12:18:24;9.07;;;8.18;;
49826;SDS011;35715;51.570;6.036;2024-02-26T12:23:25;10.70;;;8.55;;
49826;SDS011;35715;51.570;6.036;2024-02-26T12:25:52;11.07;;;8.70;;
49826;SDS011;35715;51.570;6.036;2024-02-26T12:28:23;12.18;;;8.63;;
49826;SDS011;35715;51.570;6.036;2024-02-26T12:30:48;10.90;;;8.32;;
49826;SDS011;35715;51.570;6.036;2024-02-26T12:33:13;14.05;;;8.52;;
49826;SDS011;35715;51.570;6.036;2024-02-26T12:35:39;10.70;;;8.57;;
49826;SDS011;35715;51.570;6.036;2024-02-26T12:38:04;13.82;;;9.88;;
49826;SDS011;35715;51.570;6.036;2024-02-26T12:40:30;10.77;;;9.05;;
49826;SDS011;35715;51.570;6.036;2024-02-26T12:42:58;12.95;;;10.45;;
49826;SDS011;35715;51.570;6.036;2024-02-26T12:45:26;13.88;;;10.90;;
49826;SDS011;35715;51.570;6.036;2024-02-26T12:47:53;13.97;;;10.83;;
49826;SDS011;35715;51.570;6.036;2024-02-26T12:50:18;16.30;;;12.68;;
49826;SDS011;35715;51.570;6.036;2024-02-26T12:52:44;12.23;;;10.23;;
49826;SDS011;35715;51.570;6.036;2024-02-26T12:55:20;12.18;;;10.52;;
49826;SDS011;35715;51.570;6.036;2024-02-26T12:57:46;14.60;;;12.07;;
49826;SDS011;35715;51.570;6.036;2024-02-26T13:00:15;14.15;;;11.25;;
49826;SDS011;35715;51.570;6.036;2024-02-26T13:02:43;17.23;;;10.82;;
49826;SDS011;35715;51.570;6.036;2024-02-26T13:05:10;15.57;;;12.20;;
49826;SDS011;35715;51.570;6.036;2024-02-26T13:07:40;17.15;;;12.05;;
49826;SDS011;35715;51.570;6.036;2024-02-26T13:10:09;19.85;;;14.68;;
49826;SDS011;35715;51.570;6.036;2024-02-26T13:12:37;20.33;;;13.63;;
49826;SDS011;35715;51.570;6.036;2024-02-26T13:15:06;17.27;;;12.15;;
49826;SDS011;35715;51.570;6.036;2024-02-26T13:17:32;19.23;;;13.10;;
49826;SDS011;35715;51.570;6.036;2024-02-26T13:19:59;20.67;;;14.75;;
49826;SDS011;35715;51.570;6.036;2024-02-26T13:22:24;17.30;;;12.10;;
49826;SDS011;35715;51.570;6.036;2024-02-26T13:24:59;19.73;;;12.65;;
49826;SDS011;35715;51.570;6.036;2024-02-26T13:27:24;15.85;;;12.25;;
49826;SDS011;35715;51.570;6.036;2024-02-26T13:30:11;15.70;;;12.43;;
49826;SDS011;35715;51.570;6.036;2024-02-26T13:32:40;17.45;;;12.27;;
49826;SDS011;35715;51.570;6.036;2024-02-26T13:35:10;19.05;;;12.77;;
49826;SDS011;35715;51.570;6.036;2024-02-26T13:37:37;16.83;;;11.80;;
49826;SDS011;35715;51.570;6.036;2024-02-26T13:40:06;16.85;;;12.07;;
49826;SDS011;35715;51.570;6.036;2024-02-26T13:42:33;17.00;;;11.95;;
49826;SDS011;35715;51.570;6.036;2024-02-26T13:44:59;15.32;;;9.90;;
49826;SDS011;35715;51.570;6.036;2024-02-26T13:47:31;15.05;;;11.68;;
49826;SDS011;35715;51.570;6.036;2024-02-26T13:49:56;12.30;;;9.68;;
49826;SDS011;35715;51.570;6.036;2024-02-26T13:52:22;14.55;;;9.68;;
49826;SDS011;35715;51.570;6.036;2024-02-26T13:54:48;15.23;;;10.10;;
49826;SDS011;35715;51.570;6.036;2024-02-26T13:57:13;12.43;;;9.85;;
49826;SDS011;35715;51.570;6.036;2024-02-26T13:59:39;13.48;;;9.80;;
49826;SDS011;35715;51.570;6.036;2024-02-26T14:02:07;11.50;;;8.65;;
49826;SDS011;35715;51.570;6.036;2024-02-26T14:04:33;12.77;;;8.40;;
49826;SDS011;35715;51.570;6.036;2024-02-26T14:06:58;11.48;;;9.55;;
49826;SDS011;35715;51.570;6.036;2024-02-26T14:09:24;11.98;;;9.02;;
49826;SDS011;35715;51.570;6.036;2024-02-26T14:11:52;13.75;;;10.27;;
49826;SDS011;35715;51.570;6.036;2024-02-26T14:14:17;10.43;;;7.80;;
49826;SDS011;35715;51.570;6.036;2024-02-26T14:16:42;11.38;;;8.88;;
49826;SDS011;35715;51.570;6.036;2024-02-26T14:19:08;8.93;;;8.00;;
49826;SDS011;35715;51.570;6.036;2024-02-26T14:21:33;8.77;;;7.18;;
49826;SDS011;35715;51.570;6.036;2024-02-26T14:23:58;9.85;;;7.40;;
49826;SDS011;35715;51.570;6.036;2024-02-26T14:26:24;9.43;;;8.45;;
49826;SDS011;35715;51.570;6.036;2024-02-26T14:28:49;9.40;;;7.75;;
49826;SDS011;35715;51.570;6.036;2024-02-26T14:31:18;8.95;;;6.85;;
49826;SDS011;35715;51.570;6.036;2024-02-26T14:33:43;9.93;;;8.23;;
49826;SDS011;35715;51.570;6.036;2024-02-26T14:36:09;11.07;;;8.18;;
49826;SDS011;35715;51.570;6.036;2024-02-26T14:38:35;11.13;;;8.50;;
49826;SDS011;35715;51.570;6.036;2024-02-26T14:41:01;10.73;;;7.47;;
49826;SDS011;35715;51.570;6.036;2024-02-26T14:43:27;7.10;;;6.18;;
49826;SDS011;35715;51.570;6.036;2024-02-26T14:45:52;9.68;;;8.38;;
49826;SDS011;35715;51.570;6.036;2024-02-26T14:48:17;10.95;;;8.45;;
49826;SDS011;35715;51.570;6.036;2024-02-26T14:50:43;8.52;;;7.45;;
49826;SDS011;35715;51.570;6.036;2024-02-26T14:53:08;10.85;;;7.38;;
49826;SDS011;35715;51.570;6.036;2024-02-26T14:55:34;9.93;;;8.90;;
49826;SDS011;35715;51.570;6.036;2024-02-26T14:57:59;8.88;;;7.63;;
49826;SDS011;35715;51.570;6.036;2024-02-26T15:00:25;11.73;;;6.47;;
49826;SDS011;35715;51.570;6.036;2024-02-26T15:02:50;8.45;;;6.82;;